HKJKFSIA

Guest
Details From HKJK - Nairobi Jomo Kanyatta Intl
To FSIA - Seychelles Intl
Flight Number -
Tags Generated
Created
Modified
Stats Distance 1,133 nm / 2,099 km
Max Altitude 0 ft / 0 m
Waypoints 3
Social Downloads 1
Likes 0
Share VATSIM

Download

Looking for another format? Having issues loading an existing format? Contact us
Advertisement - Login to hide

Notes

Generated

Route

HKJK SEYNB FSIA

ID Type Via Altitude Latitude Longitude Leg Dist Tot Dist Heading (true) Name
O HKJK APT - 0 ft / 0 m -1.32774˚ 36.91612˚ - 0 nm - -
SEYNB FIX - 0 ft / 0 m -4.61759˚ 55.43946˚ 1128 nm 1128 nm 100° / 100° -
O FSIA APT - 0 ft / 0 m -4.66663˚ 55.51080˚ 5 nm 1133 nm 125° / 125° -

Altitude Profile

Advertisement - Login to hide

Weather


0- 5 10 15 20 25 30 35+ Temperature / ° C

Clouds and Precipitation
Forecast for 2018-05-26 00:00 UTC. Updated 6 hours ago

Ground ~20,000 ft ~40,000 ft Winds

HKJK

Details ICAO HKJK (NBO)
Name Nairobi Jomo Kanyatta Intl
Region Kenya
Timezone Africa/Nairobi (UTC+3.0)
Stats Elevation 5,330 ft / 1,625 m (AMSL)
Location -1.317073° 36.930757°
Runways 1
Magnetic Variation 0.591° E

METAR

HKJK 260430Z 17005KT 9999 BKN016 17/16 Q1022

Decode

TAF

TAF HKJK 252300Z 2600/2706 07005KT 9999 BKN004 TEMPO 2600/2606 18005KT SCT008 BKN015 BECMG 2608/2611 16010KT BKN030 BECMG 2620/2623 02005KT BKN024 TEMPO 2700/2706 18005KT SCT005 BKN016

Decode

Departure Runways

ID Width Length Bearing (true) Bearing (mag) Surface Threshold Offset Overrun Length
06 148 ft / 45 m 13,215 ft / 4,028 m 53.90° 53.31° Asphalt 0 ft / 0 m 194 ft / 59 m
24 148 ft / 45 m 13,215 ft / 4,028 m 233.90° 233.31° Asphalt 0 ft / 0 m 197 ft / 60 m

FSIA

Details ICAO FSIA (SEZ)
Name SEYCHELLES INTL
Region Seychelles
Timezone Unknown (UTC+0.0)
Stats Elevation 10 ft / 3 m (AMSL)
Location -4.674378° 55.521829°
Runways 1
Magnetic Variation 5.030° W

METAR

FSIA 260500Z 12013KT 9999 R13///// SCT016 29/25 Q1011 NOSIG

Decode

TAF

TAF FSIA 252305Z 2600/2624 14015KT 9999 SCT020 TEMPO 2601/2608 -SHRA FEW012 BKN018 PROB40 TEMPO 2612/2618 -SHRA BKN022

Decode

Destination Runways

ID Width Length Bearing (true) Bearing (mag) Surface Threshold Offset Overrun Length
13 151 ft / 46 m 9,813 ft / 2,991 m 125.18° 130.21° Concrete 1,001 ft / 305 m 279 ft / 85 m
31 151 ft / 46 m 9,813 ft / 2,991 m 305.18° 310.21° Concrete 1,001 ft / 305 m 115 ft / 35 m

Approach Navaids

Runway Type Ident Frequency Range Bearing (true) Bearing (mag) Slope Elevation
31 Localiser SIA 110.30 MHz 18 nm / 33 km 305.21° 310.24° - 10 ft / 3 m (AMSL)
31 Glidescope SIA 110.30 MHz 10 nm / 19 km 305.18° 310.21° 3.00° 10 ft / 3 m (AMSL)
31 DME SIA 110.30 MHz 18 nm / 33 km - - - 10 ft / 3 m (AMSL)

Popular Alternatives